Time;durP1;ratioP1;P1;durP2;ratioP2;P2;SDS_P1;SDS_P2;PMS_P1;PMS_P2;Temp;Humidity;BMP_temperature;BMP_pressure;BME280_temperature;BME280_humidity;BME280_pressure;Samples;Min_cycle;Max_cycle;Signal;HPM_P1;HPM_P2
2024/01/02 00:02:18;;;;;;;18.65;5.05;;;7.00;99.90;;;;;;5061666;28;20227;-45
2024/01/02 00:04:43;;;;;;;18.27;5.00;;;7.00;99.90;;;;;;5063121;28;20244;-42
2024/01/02 00:07:09;;;;;;;15.93;4.78;;;7.00;99.90;;;;;;5062454;28;20186;-45
2024/01/02 00:09:35;;;;;;;19.05;5.13;;;7.00;99.90;;;;;;5063257;28;20208;-42
2024/01/02 00:12:01;;;;;;;14.82;4.30;;;7.00;99.90;;;;;;5061518;28;20222;-46
2024/01/02 00:14:28;;;;;;;17.13;5.35;;;7.00;99.90;;;;;;5061094;28;20414;-46
2024/01/02 00:16:54;;;;;;;19.60;5.25;;;7.00;99.90;;;;;;5062806;28;20199;-46
2024/01/02 00:19:20;;;;;;;15.20;4.72;;;7.00;99.90;;;;;;5063379;28;20210;-50
2024/01/02 00:21:46;;;;;;;17.73;4.65;;;7.00;99.90;;;;;;5061741;28;20758;-45
2024/01/02 00:24:12;;;;;;;13.35;4.97;;;7.00;99.90;;;;;;5061666;28;20193;-49
2024/01/02 00:26:39;;;;;;;13.52;4.30;;;7.00;99.90;;;;;;5063748;28;20187;-48
2024/01/02 00:29:05;;;;;;;16.48;4.60;;;7.00;99.90;;;;;;5060740;28;21152;-48
2024/01/02 00:31:31;;;;;;;19.60;4.88;;;7.00;99.90;;;;;;5061165;28;20292;-43
2024/01/02 00:33:57;;;;;;;14.63;4.60;;;7.00;99.90;;;;;;5044712;28;20561;-44
2024/01/02 00:36:23;;;;;;;13.77;4.55;;;7.00;99.90;;;;;;5061928;28;20665;-47
2024/01/02 00:38:49;;;;;;;17.02;4.55;;;7.00;99.90;;;;;;5061988;28;20579;-50
2024/01/02 00:41:15;;;;;;;17.58;4.65;;;7.00;99.90;;;;;;5063736;28;20619;-48
2024/01/02 00:43:40;;;;;;;16.70;5.10;;;7.00;99.90;;;;;;5060839;28;20190;-45
2024/01/02 00:46:06;;;;;;;18.83;4.93;;;7.00;99.90;;;;;;5060767;28;20194;-43
2024/01/02 00:48:32;;;;;;;16.33;4.38;;;7.00;99.90;;;;;;5062568;28;20229;-49
2024/01/02 00:51:00;;;;;;;12.68;4.20;;;7.00;99.90;;;;;;5062474;28;20222;-51
2024/01/02 00:53:26;;;;;;;13.27;4.53;;;7.00;99.90;;;;;;5062351;28;20680;-46
2024/01/02 00:55:53;;;;;;;12.93;4.75;;;7.10;99.90;;;;;;5048085;28;20187;-45
2024/01/02 00:58:19;;;;;;;15.05;4.20;;;7.10;99.90;;;;;;5062406;28;20259;-43
2024/01/02 01:00:45;;;;;;;13.43;4.32;;;7.10;99.90;;;;;;5062250;28;20194;-48
2024/01/02 01:03:13;;;;;;;14.85;4.40;;;7.10;99.90;;;;;;5046878;28;20198;-47
2024/01/02 01:05:39;;;;;;;17.85;4.30;;;7.10;99.90;;;;;;5065340;28;20189;-43
2024/01/02 01:08:05;;;;;;;19.23;4.13;;;7.10;99.90;;;;;;5065542;28;20190;-50
2024/01/02 01:10:31;;;;;;;11.02;4.13;;;7.10;99.90;;;;;;5064539;28;20187;-46
2024/01/02 01:12:57;;;;;;;13.55;4.18;;;7.20;99.90;;;;;;5065042;28;20217;-50
2024/01/02 01:15:23;;;;;;;14.70;3.53;;;7.20;99.90;;;;;;5066601;28;20182;-48
2024/01/02 01:17:49;;;;;;;17.58;4.43;;;7.20;99.90;;;;;;5065188;28;20723;-46
2024/01/02 01:20:15;;;;;;;14.02;4.30;;;7.20;99.90;;;;;;5048508;28;20190;-43
2024/01/02 01:22:41;;;;;;;16.27;4.20;;;7.20;99.90;;;;;;5065275;28;20563;-46
2024/01/02 01:25:07;;;;;;;12.95;4.28;;;7.30;99.90;;;;;;5047172;28;20256;-52
2024/01/02 01:27:32;;;;;;;17.08;4.40;;;7.30;99.90;;;;;;5064954;28;20240;-49
2024/01/02 01:29:58;;;;;;;11.63;4.30;;;7.30;99.90;;;;;;5066944;28;20186;-45
2024/01/02 01:32:24;;;;;;;12.25;4.47;;;7.30;99.90;;;;;;5063428;28;20716;-46
2024/01/02 01:34:51;;;;;;;15.13;3.90;;;7.30;99.90;;;;;;5065701;28;20301;-49
2024/01/02 01:37:17;;;;;;;10.32;3.90;;;7.30;99.90;;;;;;5048340;28;20182;-46
2024/01/02 01:39:43;;;;;;;13.13;3.72;;;7.30;99.90;;;;;;5062276;28;20244;-48
2024/01/02 01:42:09;;;;;;;17.58;3.67;;;7.30;99.90;;;;;;5065706;28;20182;-48
2024/01/02 01:44:34;;;;;;;14.48;3.60;;;7.30;99.90;;;;;;5066658;28;20186;-45
2024/01/02 01:47:02;;;;;;;14.20;3.78;;;7.30;99.90;;;;;;5063629;28;20600;-47
2024/01/02 01:49:28;;;;;;;14.27;3.60;;;7.30;99.90;;;;;;5054121;28;20225;-45
2024/01/02 01:51:55;;;;;;;10.38;3.22;;;7.30;99.90;;;;;;5047505;28;20245;-48
2024/01/02 01:54:22;;;;;;;13.57;3.28;;;7.30;99.90;;;;;;5064982;28;20243;-46
2024/01/02 01:56:49;;;;;;;14.95;4.07;;;7.30;99.90;;;;;;5064115;28;20821;-44
2024/01/02 01:59:15;;;;;;;12.20;3.80;;;7.30;99.90;;;;;;5079676;28;20557;-46
2024/01/02 02:01:45;;;;;;;8.98;3.38;;;7.30;99.90;;;;;;5065312;28;20277;-45
2024/01/02 02:04:11;;;;;;;13.32;3.85;;;7.30;99.90;;;;;;5081134;28;20555;-49
2024/01/02 02:06:37;;;;;;;13.95;3.45;;;7.30;99.90;;;;;;5065118;28;20182;-51
2024/01/02 02:09:03;;;;;;;11.40;3.50;;;7.30;99.90;;;;;;5065712;28;20190;-50
2024/01/02 02:11:30;;;;;;;20.70;4.32;;;7.30;99.90;;;;;;5046952;28;20237;-46
2024/01/02 02:13:56;;;;;;;12.20;3.38;;;7.30;99.90;;;;;;5051648;28;20194;-46
2024/01/02 02:16:21;;;;;;;10.98;3.28;;;7.40;99.90;;;;;;5047797;28;20193;-52
2024/01/02 02:18:47;;;;;;;12.13;3.78;;;7.30;99.90;;;;;;5060604;28;20190;-48
2024/01/02 02:21:13;;;;;;;12.07;3.80;;;7.40;99.90;;;;;;5065546;28;20198;-47
2024/01/02 02:23:39;;;;;;;11.68;3.95;;;7.30;99.90;;;;;;5046659;28;20296;-46
2024/01/02 02:26:05;;;;;;;16.10;4.05;;;7.40;99.90;;;;;;5064253;28;20197;-45
2024/01/02 02:28:31;;;;;;;14.20;4.22;;;7.40;99.90;;;;;;5064755;28;20307;-46
2024/01/02 02:30:57;;;;;;;12.13;4.25;;;7.40;99.90;;;;;;5081073;28;20337;-46
2024/01/02 02:33:23;;;;;;;13.32;3.63;;;7.40;99.90;;;;;;5064798;28;20193;-46
2024/01/02 02:35:48;;;;;;;11.35;3.90;;;7.40;99.90;;;;;;5065200;28;20553;-47
2024/01/02 02:38:14;;;;;;;15.77;4.65;;;7.30;99.90;;;;;;5064529;28;20198;-47
2024/01/02 02:40:40;;;;;;;17.67;4.00;;;7.30;99.90;;;;;;5064885;28;20191;-44
2024/01/02 02:43:07;;;;;;;11.18;4.43;;;7.40;99.90;;;;;;5065460;28;21157;-49
2024/01/02 02:45:34;;;;;;;18.77;5.00;;;7.30;99.90;;;;;;5063995;28;20187;-48
2024/01/02 02:48:00;;;;;;;11.63;4.75;;;7.30;99.90;;;;;;5080137;28;20265;-56
2024/01/02 02:50:25;;;;;;;14.77;4.90;;;7.30;99.90;;;;;;5065027;28;20207;-45
2024/01/02 02:52:51;;;;;;;14.38;5.65;;;7.30;99.90;;;;;;5064128;28;20187;-44
2024/01/02 02:55:18;;;;;;;16.10;5.40;;;7.30;99.90;;;;;;5046000;28;20322;-44
2024/01/02 02:57:44;;;;;;;16.60;6.50;;;7.40;99.90;;;;;;5065531;28;20276;-50
2024/01/02 03:00:11;;;;;;;17.10;6.13;;;7.30;99.90;;;;;;5063740;28;20183;-48
2024/01/02 03:02:37;;;;;;;13.00;6.40;;;7.30;99.90;;;;;;5064330;28;20283;-46
2024/01/02 03:05:03;;;;;;;17.67;6.72;;;7.30;99.90;;;;;;5065080;28;20190;-51
2024/01/02 03:07:29;;;;;;;16.67;6.30;;;7.30;99.90;;;;;;5078869;28;20270;-49
2024/01/02 03:09:55;;;;;;;13.57;6.65;;;7.40;99.90;;;;;;5079747;28;20676;-46
2024/01/02 03:12:20;;;;;;;18.30;6.63;;;7.40;99.90;;;;;;5079409;28;20206;-43
2024/01/02 03:14:47;;;;;;;20.15;7.03;;;7.40;99.90;;;;;;5063702;28;20202;-47
2024/01/02 03:17:13;;;;;;;17.70;6.60;;;7.40;99.90;;;;;;5064805;28;20190;-46
2024/01/02 03:19:39;;;;;;;16.63;6.75;;;7.40;99.90;;;;;;5064402;28;20191;-45
2024/01/02 03:22:05;;;;;;;15.95;6.20;;;7.40;99.90;;;;;;5063465;28;20249;-47
2024/01/02 03:24:31;;;;;;;16.67;6.55;;;7.40;99.90;;;;;;5063245;28;20348;-49
2024/01/02 03:26:57;;;;;;;17.25;6.60;;;7.40;99.90;;;;;;5065725;28;20182;-43
2024/01/02 03:29:26;;;;;;;15.63;6.82;;;7.40;99.90;;;;;;5063239;28;20205;-43
2024/01/02 03:31:52;;;;;;;17.80;6.15;;;7.40;99.90;;;;;;5063317;28;20210;-45
2024/01/02 03:34:18;;;;;;;14.70;6.70;;;7.30;99.90;;;;;;5065062;28;20581;-44
2024/01/02 03:36:45;;;;;;;18.45;6.50;;;7.40;99.90;;;;;;5062526;28;20206;-45
2024/01/02 03:39:11;;;;;;;18.52;7.13;;;7.40;99.90;;;;;;5062584;28;20183;-46
2024/01/02 03:41:36;;;;;;;14.32;6.80;;;7.40;99.90;;;;;;5064269;28;20568;-47
2024/01/02 03:44:02;;;;;;;14.25;6.97;;;7.40;99.90;;;;;;5063705;28;20243;-47
2024/01/02 03:46:28;;;;;;;16.60;6.55;;;7.40;99.90;;;;;;5064051;28;20456;-41
2024/01/02 03:48:54;;;;;;;16.08;6.50;;;7.40;99.90;;;;;;5062331;28;20222;-49
2024/01/02 03:51:20;;;;;;;18.20;7.07;;;7.40;99.90;;;;;;5063711;28;20301;-49
2024/01/02 03:53:46;;;;;;;18.33;6.88;;;7.40;99.90;;;;;;5061743;28;20214;-47
2024/01/02 03:56:15;;;;;;;15.30;6.35;;;7.40;99.90;;;;;;5062362;28;20229;-48
2024/01/02 03:58:41;;;;;;;16.23;6.18;;;7.40;99.90;;;;;;5062971;28;20716;-49
2024/01/02 04:01:07;;;;;;;11.80;5.47;;;7.40;99.90;;;;;;5063350;28;20202;-43
2024/01/02 04:03:33;;;;;;;16.58;5.55;;;7.40;99.90;;;;;;5062052;28;20205;-46
2024/01/02 04:05:59;;;;;;;14.75;5.32;;;7.40;99.90;;;;;;5064086;28;20269;-44
2024/01/02 04:08:25;;;;;;;12.40;4.72;;;7.40;99.90;;;;;;5062601;28;20202;-44
2024/01/02 04:10:50;;;;;;;12.13;4.95;;;7.40;99.90;;;;;;5058869;28;20210;-47
2024/01/02 04:13:16;;;;;;;12.50;5.45;;;7.40;99.90;;;;;;5063210;28;20240;-47
2024/01/02 04:15:42;;;;;;;15.93;6.80;;;7.40;99.90;;;;;;5062518;28;20225;-49
2024/01/02 04:18:08;;;;;;;20.10;11.88;;;7.40;99.90;;;;;;5044325;28;20195;-48
2024/01/02 04:20:34;;;;;;;15.75;7.38;;;7.40;99.90;;;;;;5062830;28;20270;-46
2024/01/02 04:23:00;;;;;;;19.23;9.00;;;7.40;99.90;;;;;;5062253;28;20186;-47
2024/01/02 04:25:26;;;;;;;18.98;9.18;;;7.40;99.90;;;;;;5062996;28;20200;-49
2024/01/02 04:27:56;;;;;;;12.13;6.13;;;7.50;99.90;;;;;;5063462;28;20187;-50
2024/01/02 04:30:24;;;;;;;13.25;5.35;;;7.40;99.90;;;;;;5062294;28;20514;-46
2024/01/02 04:32:51;;;;;;;11.18;5.13;;;7.40;99.90;;;;;;5063311;28;20193;-48
2024/01/02 04:35:16;;;;;;;16.88;5.18;;;7.50;99.90;;;;;;5062723;28;20217;-47
2024/01/02 04:37:43;;;;;;;12.77;5.10;;;7.50;99.90;;;;;;5062150;28;20182;-45
2024/01/02 04:40:10;;;;;;;13.10;5.18;;;7.50;99.90;;;;;;5063844;28;20182;-44
2024/01/02 04:42:37;;;;;;;12.68;4.85;;;7.50;99.90;;;;;;5061778;28;20185;-45
2024/01/02 04:45:04;;;;;;;12.82;4.57;;;7.50;99.90;;;;;;5061513;28;20194;-42
2024/01/02 04:47:31;;;;;;;12.77;5.20;;;7.40;99.90;;;;;;5062303;28;20193;-48
2024/01/02 04:49:57;;;;;;;12.85;5.15;;;7.50;99.90;;;;;;5062188;28;20329;-46
2024/01/02 04:52:23;;;;;;;13.82;4.85;;;7.50;99.90;;;;;;5061230;28;20210;-47
2024/01/02 04:54:49;;;;;;;14.75;5.18;;;7.50;99.90;;;;;;5063553;28;20239;-47
2024/01/02 04:57:16;;;;;;;12.50;5.22;;;7.50;99.90;;;;;;5061721;28;20190;-45
2024/01/02 04:59:42;;;;;;;9.93;4.82;;;7.50;99.90;;;;;;5050915;28;20317;-45
2024/01/02 05:02:08;;;;;;;12.10;4.88;;;7.50;99.90;;;;;;5063068;28;20194;-50
2024/01/02 05:04:34;;;;;;;10.38;5.40;;;7.40;99.90;;;;;;5061708;28;20201;-50
2024/01/02 05:07:00;;;;;;;11.05;5.38;;;7.50;99.90;;;;;;5060123;28;20190;-45
2024/01/02 05:09:27;;;;;;;10.10;5.05;;;7.50;99.90;;;;;;5063485;28;20182;-53
2024/01/02 05:11:53;;;;;;;11.63;5.18;;;7.50;99.90;;;;;;5060023;28;20310;-51
2024/01/02 05:14:19;;;;;;;9.57;4.82;;;7.50;99.90;;;;;;5062554;28;20323;-42
2024/01/02 05:16:45;;;;;;;13.18;4.72;;;7.50;99.90;;;;;;5063397;28;20191;-47
2024/01/02 05:19:11;;;;;;;9.98;4.25;;;7.50;99.90;;;;;;5062054;28;20566;-52
2024/01/02 05:21:37;;;;;;;9.68;4.72;;;7.50;99.90;;;;;;5077382;28;20183;-41
2024/01/02 05:24:04;;;;;;;8.48;3.97;;;7.50;99.90;;;;;;5062758;28;20248;-45
2024/01/02 05:26:30;;;;;;;13.98;3.88;;;7.50;99.90;;;;;;5047069;28;20195;-45
2024/01/02 05:28:55;;;;;;;7.22;3.70;;;7.50;99.90;;;;;;5062985;28;20309;-50
2024/01/02 05:31:21;;;;;;;11.35;4.25;;;7.50;99.90;;;;;;5060250;28;20210;-46
2024/01/02 05:33:47;;;;;;;10.20;3.78;;;7.50;99.90;;;;;;5060452;28;20220;-44
2024/01/02 05:36:13;;;;;;;8.38;3.33;;;7.50;99.90;;;;;;5061769;28;20195;-45
2024/01/02 05:38:39;;;;;;;6.63;2.97;;;7.50;99.90;;;;;;5060959;28;20194;-43
2024/01/02 05:41:07;;;;;;;8.48;3.40;;;7.50;99.90;;;;;;5061615;28;20191;-48
2024/01/02 05:43:34;;;;;;;7.72;3.33;;;7.50;99.90;;;;;;5062338;28;20224;-49
2024/01/02 05:45:59;;;;;;;11.13;3.22;;;7.40;99.90;;;;;;5061903;28;20244;-48
2024/01/02 05:48:25;;;;;;;7.50;3.45;;;7.50;99.90;;;;;;5063992;28;20222;-42
2024/01/02 05:50:51;;;;;;;4.95;3.03;;;7.50;99.90;;;;;;5065189;28;21410;-53
2024/01/02 05:53:17;;;;;;;6.20;3.30;;;7.40;99.90;;;;;;5065491;28;20269;-46
2024/01/02 05:55:43;;;;;;;8.48;3.03;;;7.40;99.90;;;;;;5066758;28;20186;-48
2024/01/02 05:58:09;;;;;;;8.00;3.30;;;7.40;99.90;;;;;;5065063;28;20190;-47
2024/01/02 06:00:35;;;;;;;6.20;3.03;;;7.40;99.90;;;;;;5064812;28;20205;-50
2024/01/02 06:03:01;;;;;;;7.47;3.05;;;7.40;99.90;;;;;;5066801;28;20182;-48
2024/01/02 06:05:27;;;;;;;5.10;2.72;;;7.40;99.90;;;;;;5065173;28;20218;-45
2024/01/02 06:07:53;;;;;;;8.05;2.70;;;7.30;99.90;;;;;;5064805;28;20189;-47
2024/01/02 06:10:19;;;;;;;4.90;2.33;;;7.40;99.90;;;;;;5064745;28;20182;-49
2024/01/02 06:12:44;;;;;;;5.65;2.70;;;7.40;99.90;;;;;;5064740;28;20217;-52
2024/01/02 06:15:13;;;;;;;3.80;2.65;;;7.30;99.90;;;;;;5065799;28;20189;-46
2024/01/02 06:17:39;;;;;;;4.45;2.50;;;7.30;99.90;;;;;;5064978;28;20182;-43
2024/01/02 06:20:06;;;;;;;18.45;3.25;;;7.30;99.90;;;;;;5065567;28;20248;-46
2024/01/02 06:22:32;;;;;;;5.50;2.88;;;7.40;99.90;;;;;;5065078;28;20206;-48
2024/01/02 06:24:58;;;;;;;4.53;2.78;;;7.40;99.90;;;;;;5063524;28;20198;-45
2024/01/02 06:27:24;;;;;;;7.38;2.65;;;7.40;99.90;;;;;;5065212;28;20238;-45
2024/01/02 06:29:50;;;;;;;4.63;2.95;;;7.40;99.90;;;;;;5066188;28;20194;-52
2024/01/02 06:32:15;;;;;;;5.90;2.72;;;7.40;99.90;;;;;;5064218;28;20267;-46
2024/01/02 06:34:41;;;;;;;4.20;2.45;;;7.40;99.90;;;;;;5064360;28;20191;-45
2024/01/02 06:37:07;;;;;;;4.72;2.60;;;7.40;99.90;;;;;;5064330;28;20182;-51
2024/01/02 06:39:34;;;;;;;3.72;2.42;;;7.40;99.90;;;;;;5062847;28;20203;-48
2024/01/02 06:41:59;;;;;;;3.97;2.40;;;7.40;99.90;;;;;;5063903;28;20606;-50
2024/01/02 06:44:25;;;;;;;2.80;2.10;;;7.50;99.90;;;;;;5047192;28;20191;-46
2024/01/02 06:46:51;;;;;;;6.05;2.30;;;7.50;99.90;;;;;;5063953;28;20277;-47
2024/01/02 06:49:17;;;;;;;5.05;2.30;;;7.50;99.90;;;;;;5064449;28;20317;-48
2024/01/02 06:51:43;;;;;;;5.13;2.20;;;7.50;99.90;;;;;;5063657;28;20267;-46
2024/01/02 06:54:09;;;;;;;5.10;2.53;;;7.50;99.90;;;;;;5064178;28;20190;-48
2024/01/02 06:56:35;;;;;;;5.00;2.40;;;7.50;99.90;;;;;;5064251;28;20568;-47
2024/01/02 06:59:01;;;;;;;3.05;2.30;;;7.50;99.90;;;;;;5063479;28;20175;-46
2024/01/02 07:01:26;;;;;;;4.28;1.92;;;7.60;99.90;;;;;;5063567;28;20194;-50
2024/01/02 07:03:52;;;;;;;3.10;2.28;;;7.60;99.90;;;;;;5064087;28;20244;-46
2024/01/02 07:06:18;;;;;;;3.95;2.38;;;7.50;99.90;;;;;;5062730;28;20896;-49
2024/01/02 07:08:45;;;;;;;3.55;2.20;;;7.60;99.90;;;;;;5064168;28;20195;-51
2024/01/02 07:11:11;;;;;;;4.38;2.80;;;7.60;99.90;;;;;;5065734;28;20206;-49
2024/01/02 07:13:37;;;;;;;3.78;2.38;;;7.60;99.90;;;;;;5062996;28;20256;-46
2024/01/02 07:16:03;;;;;;;5.57;2.33;;;7.60;99.90;;;;;;5063314;28;20196;-45
2024/01/02 07:18:30;;;;;;;13.50;4.15;;;7.60;99.90;;;;;;5064382;28;20187;-46
2024/01/02 07:20:56;;;;;;;11.48;5.53;;;7.60;99.90;;;;;;5063630;28;20715;-48
2024/01/02 07:23:23;;;;;;;4.57;3.10;;;7.60;99.90;;;;;;5063158;28;20967;-43
2024/01/02 07:25:49;;;;;;;3.88;2.50;;;7.60;99.90;;;;;;5063160;28;20218;-49
2024/01/02 07:28:15;;;;;;;3.30;2.90;;;7.60;99.90;;;;;;5064053;28;20662;-44
2024/01/02 07:30:41;;;;;;;3.83;3.40;;;7.60;99.90;;;;;;5064639;28;20306;-40
2024/01/02 07:33:07;;;;;;;4.07;3.45;;;7.60;99.90;;;;;;5061801;28;20375;-42
2024/01/02 07:35:33;;;;;;;6.30;2.85;;;7.70;99.90;;;;;;5064716;28;20186;-46
2024/01/02 07:37:59;;;;;;;2.55;2.35;;;7.70;99.90;;;;;;5080091;28;20197;-46
2024/01/02 07:40:25;;;;;;;2.15;1.95;;;7.70;99.90;;;;;;5063092;28;20568;-43
2024/01/02 07:42:51;;;;;;;3.53;2.15;;;7.60;99.90;;;;;;5062241;28;20202;-43
2024/01/02 07:45:17;;;;;;;3.10;2.22;;;7.60;99.90;;;;;;5063767;28;20190;-41
2024/01/02 07:47:43;;;;;;;3.95;2.70;;;7.70;99.90;;;;;;5062527;28;20197;-44
2024/01/02 07:50:09;;;;;;;2.58;2.20;;;7.70;99.90;;;;;;5063672;28;20186;-45
2024/01/02 07:52:35;;;;;;;3.08;2.70;;;7.70;99.90;;;;;;5062418;28;20689;-46
2024/01/02 07:55:02;;;;;;;3.38;2.90;;;7.70;99.90;;;;;;5062616;28;20190;-41
2024/01/02 07:57:28;;;;;;;3.78;3.30;;;7.70;99.90;;;;;;5063713;28;20205;-42
2024/01/02 07:59:54;;;;;;;5.28;3.53;;;7.80;99.90;;;;;;5061763;28;20183;-42
2024/01/02 08:02:20;;;;;;;3.95;3.50;;;7.80;99.90;;;;;;5064258;28;20194;-45
2024/01/02 08:04:46;;;;;;;6.03;4.57;;;7.90;99.90;;;;;;5063923;28;20753;-45
2024/01/02 08:07:11;;;;;;;3.08;2.30;;;7.90;99.90;;;;;;5062277;28;20551;-49
2024/01/02 08:09:37;;;;;;;2.47;2.28;;;8.00;99.90;;;;;;5061592;28;21227;-48
2024/01/02 08:12:04;;;;;;;3.83;2.38;;;8.10;99.90;;;;;;5064419;28;20237;-43
2024/01/02 08:14:29;;;;;;;3.17;2.80;;;8.10;99.90;;;;;;5061326;28;20285;-45
2024/01/02 08:16:55;;;;;;;5.75;4.03;;;8.20;99.90;;;;;;5063483;28;21131;-45
2024/01/02 08:19:21;;;;;;;3.47;3.10;;;8.20;99.90;;;;;;5062960;28;20647;-46
2024/01/02 08:21:47;;;;;;;3.40;2.78;;;8.30;99.90;;;;;;5063005;28;20284;-43
2024/01/02 08:24:13;;;;;;;7.13;4.40;;;8.40;99.90;;;;;;5063316;28;20322;-48
2024/01/02 08:26:39;;;;;;;4.85;3.47;;;8.40;99.90;;;;;;5061027;28;20244;-46
2024/01/02 08:29:05;;;;;;;3.25;2.83;;;8.50;99.90;;;;;;5062880;28;20273;-46
2024/01/02 08:31:30;;;;;;;3.90;3.45;;;8.50;99.90;;;;;;5064766;28;20630;-45
2024/01/02 08:33:56;;;;;;;13.77;8.82;;;8.50;99.90;;;;;;5061286;28;20185;-43
2024/01/02 08:36:22;;;;;;;5.22;3.80;;;8.60;99.90;;;;;;5062749;28;20191;-44
2024/01/02 08:38:48;;;;;;;6.40;4.63;;;8.70;99.90;;;;;;5063632;28;20182;-47
2024/01/02 08:41:14;;;;;;;6.00;4.15;;;8.70;99.90;;;;;;5061723;28;20221;-45
2024/01/02 08:43:40;;;;;;;5.97;4.68;;;8.80;99.90;;;;;;5063094;28;20233;-49
2024/01/02 08:46:06;;;;;;;5.85;4.18;;;8.80;99.90;;;;;;5064259;28;20191;-43
2024/01/02 08:48:32;;;;;;;8.95;6.60;;;8.90;99.90;;;;;;5061204;28;20353;-46
2024/01/02 08:50:58;;;;;;;18.23;10.75;;;8.90;99.90;;;;;;5062647;28;20293;-42
2024/01/02 08:53:24;;;;;;;8.07;5.63;;;9.00;99.90;;;;;;5064014;28;20179;-47
2024/01/02 08:55:50;;;;;;;12.73;5.50;;;9.00;99.90;;;;;;5061684;28;20281;-43
2024/01/02 08:58:15;;;;;;;8.63;4.93;;;9.10;99.90;;;;;;5062685;28;20191;-45
2024/01/02 09:00:41;;;;;;;9.52;6.05;;;9.10;99.90;;;;;;5063645;28;20671;-42
2024/01/02 09:03:10;;;;;;;12.85;6.43;;;9.20;99.90;;;;;;5061622;28;20801;-48
2024/01/02 09:05:37;;;;;;;9.75;5.95;;;9.30;99.90;;;;;;5062139;28;20185;-48
2024/01/02 09:08:04;;;;;;;11.90;5.75;;;9.30;99.90;;;;;;5062532;28;20194;-46
2024/01/02 09:10:30;;;;;;;11.93;5.38;;;9.40;99.90;;;;;;5043347;28;20196;-48
2024/01/02 09:12:56;;;;;;;15.63;4.95;;;9.50;99.90;;;;;;5061604;28;20219;-45
2024/01/02 09:15:22;;;;;;;14.55;4.97;;;9.50;99.90;;;;;;5062576;28;20239;-50
2024/01/02 09:17:48;;;;;;;19.90;5.00;;;9.60;99.90;;;;;;5062591;28;20178;-50
2024/01/02 09:20:14;;;;;;;17.80;5.00;;;9.70;99.90;;;;;;5063422;28;20247;-43
2024/01/02 09:22:40;;;;;;;20.65;4.18;;;9.70;99.90;;;;;;5062076;28;20306;-45
2024/01/02 09:25:09;;;;;;;19.40;3.85;;;9.80;99.90;;;;;;5064412;28;20697;-43
2024/01/02 09:27:37;;;;;;;26.55;3.95;;;9.90;99.90;;;;;;5066582;28;20251;-42
2024/01/02 09:30:04;;;;;;;20.33;3.85;;;10.00;99.90;;;;;;5065083;28;20209;-43
2024/01/02 09:32:31;;;;;;;21.85;3.55;;;10.10;99.90;;;;;;5065390;28;20214;-51
2024/01/02 09:34:57;;;;;;;19.90;4.70;;;10.10;99.90;;;;;;5065589;28;20190;-44
2024/01/02 09:37:22;;;;;;;19.55;2.90;;;10.20;99.90;;;;;;5065516;28;20209;-44
2024/01/02 09:39:49;;;;;;;23.38;3.35;;;10.30;99.90;;;;;;5065353;28;20194;-47
2024/01/02 09:42:41;;;;;;;19.08;2.90;;;10.30;99.90;;;;;;5064957;28;20673;-52
2024/01/02 09:45:16;;;;;;;22.17;3.05;;;10.40;99.90;;;;;;5065471;28;20237;-47
2024/01/02 09:48:24;;;;;;;29.83;3.55;;;10.40;99.90;;;;;;5065692;28;20204;-45
2024/01/02 09:51:07;;;;;;;19.65;3.35;;;10.50;99.90;;;;;;5046395;28;20224;-44
2024/01/02 09:53:39;;;;;;;18.17;3.60;;;10.50;99.90;;;;;;5065390;28;20441;-44
2024/01/02 09:56:15;;;;;;;20.80;2.97;;;10.60;99.90;;;;;;5063740;28;20725;-48
2024/01/02 09:59:15;;;;;;;18.17;3.20;;;10.60;99.90;;;;;;5063215;28;20204;-40
2024/01/02 10:01:52;;;;;;;16.73;2.80;;;10.70;99.90;;;;;;5065876;28;20301;-48
2024/01/02 10:04:55;;;;;;;20.15;3.22;;;10.80;99.90;;;;;;5064086;28;20233;-43
2024/01/02 10:07:33;;;;;;;16.55;3.22;;;10.80;99.90;;;;;;5081374;28;20197;-44
2024/01/02 10:10:17;;;;;;;24.25;3.08;;;10.90;99.90;;;;;;5066834;28;20194;-49
2024/01/02 10:13:13;;;;;;;28.70;3.55;;;10.90;99.90;;;;;;5065259;28;20690;-45
2024/01/02 10:16:16;;;;;;;22.27;3.13;;;10.90;99.90;;;;;;5065007;28;20182;-47
2024/01/02 10:19:21;;;;;;;22.58;3.22;;;11.00;99.90;;;;;;5049120;28;20202;-46
2024/01/02 10:21:57;;;;;;;22.88;3.42;;;11.00;99.90;;;;;;5061805;28;20662;-44
2024/01/02 10:24:40;;;;;;;26.45;3.60;;;11.10;99.90;;;;;;5065391;28;20185;-48
2024/01/02 10:27:09;;;;;;;22.25;3.50;;;11.00;99.90;;;;;;5064602;28;20190;-44
2024/01/02 10:30:02;;;;;;;26.10;4.00;;;11.10;99.90;;;;;;5065005;28;20195;-44
2024/01/02 10:32:33;;;;;;;25.90;3.80;;;11.10;99.90;;;;;;5064565;28;20210;-45
2024/01/02 10:35:11;;;;;;;17.45;3.53;;;11.10;99.90;;;;;;5064060;28;20266;-43
2024/01/02 10:37:40;;;;;;;22.35;3.15;;;11.20;99.90;;;;;;5063473;28;20194;-45
2024/01/02 10:40:12;;;;;;;22.80;3.22;;;11.20;99.90;;;;;;5064640;28;20182;-49
2024/01/02 10:43:20;;;;;;;26.27;4.05;;;11.20;99.90;;;;;;5065145;28;20189;-48
2024/01/02 10:46:18;;;;;;;23.23;3.85;;;11.30;99.90;;;;;;5039778;28;20304;-44
2024/01/02 10:48:59;;;;;;;22.17;4.03;;;11.40;99.90;;;;;;5047164;28;20242;-45
2024/01/02 10:51:42;;;;;;;22.23;3.88;;;11.40;99.90;;;;;;5063322;28;20302;-47
2024/01/02 10:54:24;;;;;;;20.98;3.72;;;11.50;99.90;;;;;;5063552;28;20186;-43
2024/01/02 10:56:59;;;;;;;22.88;4.25;;;11.60;99.90;;;;;;5063612;28;20210;-50
2024/01/02 10:59:41;;;;;;;22.33;4.25;;;11.60;99.90;;;;;;5064549;28;20481;-42
2024/01/02 11:02:28;;;;;;;17.15;3.63;;;11.60;99.90;;;;;;5063255;28;20642;-46
2024/01/02 11:05:04;;;;;;;26.40;3.80;;;11.70;99.90;;;;;;5062190;28;20191;-44
2024/01/02 11:07:36;;;;;;;20.92;3.45;;;11.70;99.90;;;;;;5063642;28;20186;-48
2024/01/02 11:10:11;;;;;;;26.45;4.07;;;11.80;99.90;;;;;;5064225;28;20191;-46
2024/01/02 11:12:48;;;;;;;32.47;3.60;;;11.80;99.90;;;;;;5062403;28;20205;-48
2024/01/02 11:15:15;;;;;;;18.70;3.55;;;11.90;99.90;;;;;;5063159;28;20576;-44
2024/01/02 11:17:42;;;;;;;21.05;3.85;;;11.90;99.90;;;;;;5063743;28;20206;-44
2024/01/02 11:20:13;;;;;;;22.98;4.03;;;11.90;99.90;;;;;;5063303;28;20187;-50
2024/01/02 11:22:47;;;;;;;31.67;3.92;;;11.90;99.90;;;;;;5062131;28;20654;-50
2024/01/02 11:25:16;;;;;;;25.35;4.32;;;12.00;99.90;;;;;;5061979;28;20175;-47
2024/01/02 11:27:43;;;;;;;21.85;3.70;;;12.00;99.90;;;;;;5063807;28;21106;-48
2024/01/02 11:30:12;;;;;;;19.25;3.42;;;12.00;99.90;;;;;;5064026;28;20183;-47
2024/01/02 11:32:57;;;;;;;19.42;4.35;;;12.10;99.90;;;;;;5061985;28;20205;-50
2024/01/02 11:35:29;;;;;;;22.15;4.38;;;12.10;99.90;;;;;;5061831;28;20191;-45
2024/01/02 11:38:10;;;;;;;28.30;5.32;;;12.10;99.90;;;;;;5061956;28;20193;-44
2024/01/02 11:41:01;;;;;;;30.02;7.38;;;12.20;99.90;;;;;;5062134;28;20685;-47
2024/01/02 11:43:59;;;;;;;32.75;8.40;;;12.20;99.90;;;;;;5061054;28;20214;-50
2024/01/02 11:46:25;;;;;;;38.03;10.80;;;12.30;99.90;;;;;;5060678;28;20437;-48
2024/01/02 11:49:05;;;;;;;41.58;11.00;;;12.20;99.90;;;;;;5061182;28;20249;-47
2024/01/02 11:51:35;;;;;;;45.65;12.20;;;12.30;99.90;;;;;;5062108;28;20213;-45
2024/01/02 11:54:28;;;;;;;46.63;13.05;;;12.30;99.90;;;;;;5062591;28;20178;-45
2024/01/02 11:56:54;;;;;;;40.05;12.30;;;12.30;99.90;;;;;;5061773;28;20531;-42
2024/01/02 11:59:41;;;;;;;49.13;12.88;;;12.30;99.90;;;;;;5062314;28;20185;-45
2024/01/02 12:02:14;;;;;;;41.30;12.60;;;12.30;99.90;;;;;;5060880;28;20187;-48
2024/01/02 12:04:55;;;;;;;50.80;14.73;;;12.30;99.90;;;;;;5062164;28;20311;-52
2024/01/02 12:07:28;;;;;;;49.33;12.00;;;12.30;99.90;;;;;;5062656;28;20190;-43
2024/01/02 12:09:56;;;;;;;41.15;12.38;;;12.30;99.90;;;;;;5062410;28;20186;-47
2024/01/02 12:12:31;;;;;;;43.78;12.23;;;12.30;99.90;;;;;;5063118;28;20213;-46
2024/01/02 12:15:05;;;;;;;42.63;11.93;;;12.40;99.90;;;;;;5061422;28;20650;-44
2024/01/02 12:17:41;;;;;;;38.25;10.25;;;12.30;99.90;;;;;;5062104;28;20693;-44
2024/01/02 12:20:11;;;;;;;39.60;9.38;;;12.40;99.90;;;;;;5062314;28;21311;-46
2024/01/02 12:22:37;;;;;;;39.42;9.25;;;12.40;99.90;;;;;;5060710;28;20243;-51
2024/01/02 12:25:07;;;;;;;41.03;9.10;;;12.40;99.90;;;;;;5062057;28;20264;-46
2024/01/02 12:27:34;;;;;;;33.13;8.32;;;12.40;99.90;;;;;;5060825;28;20230;-49
2024/01/02 12:30:06;;;;;;;39.50;8.98;;;12.40;99.90;;;;;;5060800;28;20190;-42
2024/01/02 12:32:34;;;;;;;38.95;9.05;;;12.30;99.90;;;;;;5044902;28;20243;-49
2024/01/02 12:35:09;;;;;;;40.90;8.85;;;12.30;99.90;;;;;;5062994;28;20274;-47
2024/01/02 12:38:04;;;;;;;28.85;7.80;;;12.30;99.90;;;;;;5046958;28;20232;-47
2024/01/02 12:40:33;;;;;;;34.30;7.13;;;12.30;99.90;;;;;;5061779;28;20638;-45
2024/01/02 12:43:00;;;;;;;35.22;7.05;;;12.30;99.90;;;;;;5062019;28;20595;-48
2024/01/02 12:45:33;;;;;;;30.63;6.28;;;12.30;99.90;;;;;;5060857;28;20191;-47
2024/01/02 12:48:05;;;;;;;40.83;7.32;;;12.20;99.90;;;;;;5061316;28;20542;-44
2024/01/02 12:50:36;;;;;;;30.25;6.50;;;12.20;99.90;;;;;;5061379;28;20264;-46
2024/01/02 12:53:10;;;;;;;33.05;6.43;;;12.20;99.90;;;;;;5060216;28;20606;-49
2024/01/02 12:55:43;;;;;;;36.20;5.82;;;12.30;99.90;;;;;;5043632;28;20675;-43